createdAt,value
2022-08-05T00:00:23.205Z,612.94
2022-08-05T00:01:27.779Z,616.33
2022-08-05T00:02:23.262Z,615.76
2022-08-05T00:03:23.182Z,627.89
2022-08-05T00:04:23.170Z,631.44
2022-08-05T00:06:02.064Z,644.83
2022-08-05T00:06:30.761Z,636.24
2022-08-05T00:07:59.451Z,640.51
2022-08-05T00:08:34.823Z,647.32
2022-08-05T00:09:23.083Z,652.37
2022-08-05T00:10:27.247Z,651.10
2022-08-05T00:11:28.040Z,660.74
2022-08-05T00:12:23.049Z,664.68
2022-08-05T00:13:38.082Z,678.15
2022-08-05T00:14:27.505Z,687.90
2022-08-05T00:15:55.201Z,696.49
2022-08-05T00:16:35.909Z,715.10
2022-08-05T00:17:22.992Z,721.26
2022-08-05T00:18:22.987Z,721.26
2022-08-05T00:19:24.647Z,718.16
2022-08-05T00:20:22.932Z,707.54
2022-08-05T00:21:22.942Z,713.57
2022-08-05T00:22:22.967Z,714.33
2022-08-05T00:23:44.777Z,732.31
2022-08-05T00:24:24.822Z,731.51
2022-08-05T00:25:22.866Z,719.71
2022-08-05T00:26:22.892Z,719.71
2022-08-05T00:27:25.807Z,733.11
2022-08-05T00:28:29.675Z,736.34
2022-08-05T00:29:25.505Z,732.31
2022-08-05T00:30:29.060Z,749.44
2022-08-05T00:31:54.265Z,747.35
2022-08-05T00:32:22.798Z,752.39
2022-08-05T00:34:54.550Z,741.23
2022-08-05T00:35:09.530Z,745.36
2022-08-05T00:35:22.723Z,734.72
2022-08-05T00:37:11.496Z,725.96
2022-08-05T00:37:22.717Z,728.32
2022-08-05T00:38:28.758Z,727.53
2022-08-05T00:39:22.748Z,721.26
2022-08-05T00:40:27.236Z,695.05
2022-08-05T00:41:22.682Z,708.29
2022-08-05T00:42:32.095Z,690.03
2022-08-05T00:43:22.692Z,674.05
2022-08-05T00:44:23.215Z,669.33
2022-08-05T00:45:27.992Z,660.74
2022-08-05T00:46:42.535Z,667.33
2022-08-05T00:47:22.662Z,662.70
2022-08-05T00:48:27.482Z,655.56
2022-08-05T00:49:22.550Z,623.21
2022-08-05T00:50:25.101Z,579.51
2022-08-05T00:51:51.515Z,534.18
2022-08-05T00:52:28.611Z,502.12
2022-08-05T00:53:45.227Z,486.79
2022-08-05T00:54:22.504Z,475.04
2022-08-05T00:55:22.480Z,442.39
2022-08-05T00:56:22.979Z,432.66
2022-08-05T00:57:22.948Z,418.07
2022-08-05T00:58:27.529Z,434.63
2022-08-05T00:59:22.430Z,453.48
2022-08-05T01:00:22.413Z,452.25
2022-08-05T01:01:43.008Z,417.81
2022-08-05T01:02:22.376Z,397.94
2022-08-05T01:03:23.450Z,394.42
2022-08-05T01:04:29.680Z,404.92
2022-08-05T01:05:22.339Z,416.25
2022-08-05T01:06:22.326Z,401.28
2022-08-05T01:07:22.312Z,363.27
2022-08-05T01:08:30.251Z,354.29
2022-08-05T01:09:22.309Z,391.19
2022-08-05T01:10:22.276Z,389.60
2022-08-05T01:11:33.540Z,368.15
2022-08-05T01:12:22.301Z,342.85
2022-08-05T01:13:27.346Z,331.47
2022-08-05T01:14:27.776Z,320.19
2022-08-05T01:15:36.213Z,293.64
2022-08-05T01:16:26.293Z,294.42
2022-08-05T01:17:22.438Z,290.79
2022-08-05T01:18:22.177Z,290.02
2022-08-05T01:19:22.283Z,310.53
2022-08-05T01:20:22.295Z,308.49
2022-08-05T01:21:23.018Z,317.10
2022-08-05T01:22:23.977Z,326.86
2022-08-05T01:23:23.487Z,333.48
2022-08-05T01:24:22.163Z,338.97
2022-08-05T01:25:22.101Z,346.46
2022-08-05T01:26:22.101Z,349.77
2022-08-05T01:27:22.268Z,362.47
2022-08-05T01:28:22.076Z,386.45
2022-08-05T01:29:23.214Z,399.36
2022-08-05T01:30:34.716Z,416.51
2022-08-05T01:31:22.004Z,414.19
2022-08-05T01:32:22.013Z,388.02
2022-08-05T01:33:21.964Z,370.63
2022-08-05T01:34:21.973Z,385.34
2022-08-05T01:35:50.780Z,387.57
2022-08-05T01:36:28.183Z,359.70
2022-08-05T01:37:25.150Z,341.08
2022-08-05T01:38:24.649Z,341.43
2022-08-05T01:39:45.866Z,331.80
2022-08-05T01:40:21.924Z,319.88
2022-08-05T01:41:22.057Z,291.56
2022-08-05T01:42:21.859Z,276.85
2022-08-05T01:43:21.980Z,276.16
2022-08-05T01:44:21.869Z,277.55
2022-08-05T01:45:21.823Z,278.02
2022-08-05T01:46:43.184Z,278.26
2022-08-05T01:47:22.123Z,274.09
2022-08-05T01:48:21.780Z,271.60
2022-08-05T01:49:23.918Z,263.35
2022-08-05T01:50:28.854Z,268.72
2022-08-05T01:51:21.756Z,257.38
2022-08-05T01:52:21.739Z,247.51
2022-08-05T01:53:57.886Z,241.35
2022-08-05T01:54:25.535Z,241.17
2022-08-05T01:55:21.682Z,244.57
2022-08-05T01:58:29.707Z,245.85
2022-08-05T01:58:45.760Z,245.67
2022-08-05T01:58:51.644Z,275.00
2022-08-05T01:59:51.190Z,244.03
2022-08-05T02:00:51.132Z,238.72
2022-08-05T02:01:51.180Z,235.65
2022-08-05T02:02:54.517Z,226.88
2022-08-05T02:03:51.106Z,221.99
2022-08-05T02:04:51.117Z,223.80
2022-08-05T02:05:51.073Z,219.62
2022-08-05T02:06:51.048Z,212.95
2022-08-05T02:07:57.897Z,208.76
2022-08-05T02:08:54.869Z,211.17
2022-08-05T02:09:51.152Z,211.71
2022-08-05T02:10:51.030Z,208.24
2022-08-05T02:11:52.489Z,204.87
2022-08-05T02:12:51.176Z,193.66
2022-08-05T02:13:53.749Z,188.78
2022-08-05T02:14:50.943Z,189.98
2022-08-05T02:15:50.918Z,193.21
2022-08-05T02:16:52.258Z,187.81
2022-08-05T02:18:31.604Z,185.29
2022-08-05T02:18:50.911Z,184.67
2022-08-05T02:19:50.936Z,189.65
2022-08-05T02:20:50.857Z,186.96
2022-08-05T02:21:50.863Z,182.07
2022-08-05T02:22:50.838Z,170.57
2022-08-05T02:23:50.828Z,160.44
2022-08-05T02:24:51.459Z,164.70
2022-08-05T02:25:50.805Z,164.05
2022-08-05T02:26:53.898Z,163.26
2022-08-05T02:27:59.698Z,166.34
2022-08-05T02:28:50.777Z,162.15
2022-08-05T02:29:59.038Z,161.06
2022-08-05T02:30:54.164Z,155.96
2022-08-05T02:31:50.727Z,148.36
2022-08-05T02:32:50.737Z,145.15
2022-08-05T02:33:57.325Z,148.23
2022-08-05T02:34:54.674Z,146.03
2022-08-05T02:35:58.944Z,142.43
2022-08-05T02:36:50.679Z,139.82
2022-08-05T02:37:53.985Z,134.97
2022-08-05T02:38:53.601Z,129.44
2022-08-05T02:39:51.688Z,127.76
2022-08-05T02:40:50.598Z,126.99
2022-08-05T02:42:00.614Z,129.24
2022-08-05T02:42:52.813Z,130.65
2022-08-05T02:44:06.431Z,129.34
2022-08-05T02:44:50.545Z,126.42
2022-08-05T02:45:52.239Z,121.91
2022-08-05T02:46:58.498Z,116.97
2022-08-05T02:48:06.901Z,113.64
2022-08-05T02:48:50.508Z,110.49
2022-08-05T02:49:50.482Z,108.84
2022-08-05T02:50:50.465Z,106.75
2022-08-05T02:52:04.088Z,107.79
2022-08-05T02:52:50.464Z,107.72
2022-08-05T02:53:50.430Z,111.07
2022-08-05T02:54:51.117Z,111.59
2022-08-05T02:55:54.671Z,119.22
2022-08-05T02:56:50.382Z,115.04
2022-08-05T02:58:10.735Z,109.33
2022-08-05T02:58:51.629Z,107.51
2022-08-05T02:59:52.064Z,105.41
2022-08-05T03:00:50.344Z,105.68
2022-08-05T03:01:50.377Z,104.49
2022-08-05T03:02:50.341Z,106.01
2022-08-05T03:04:02.821Z,106.08
2022-08-05T03:04:53.329Z,105.35
2022-08-05T03:06:55.756Z,103.08
2022-08-05T03:07:03.512Z,102.07
2022-08-05T03:08:07.357Z,101.27
2022-08-05T03:08:52.179Z,98.36
2022-08-05T03:09:51.966Z,96.49
2022-08-05T03:11:41.156Z,95.12
2022-08-05T03:11:58.674Z,94.00
2022-08-05T03:12:51.742Z,94.53
2022-08-05T03:13:51.731Z,98.30
2022-08-05T03:14:50.146Z,96.26
2022-08-05T03:15:50.147Z,92.82
2022-08-05T03:16:53.369Z,91.60
2022-08-05T03:17:50.120Z,90.22
2022-08-05T03:18:50.104Z,88.97
2022-08-05T03:19:50.090Z,86.85
2022-08-05T03:20:50.384Z,84.15
2022-08-05T03:21:50.164Z,83.39
2022-08-05T03:22:50.599Z,82.98
2022-08-05T03:23:50.027Z,81.53
2022-08-05T03:24:50.900Z,81.37
2022-08-05T03:26:04.761Z,80.97
2022-08-05T03:26:50.010Z,79.14
2022-08-05T03:27:59.253Z,77.60
2022-08-05T03:28:49.957Z,76.89
2022-08-05T03:30:08.264Z,76.82
2022-08-05T03:30:50.905Z,75.23
2022-08-05T03:31:57.107Z,73.32
2022-08-05T03:32:49.907Z,74.29
2022-08-05T03:33:52.750Z,74.43
2022-08-05T03:34:50.986Z,73.71
2022-08-05T03:35:49.992Z,72.75
2022-08-05T03:36:49.873Z,72.06
2022-08-05T03:37:49.880Z,71.75
2022-08-05T03:38:53.230Z,70.90
2022-08-05T03:39:59.487Z,71.62
2022-08-05T03:40:49.878Z,71.99
2022-08-05T03:41:49.810Z,72.81
2022-08-05T03:42:52.150Z,71.93
2022-08-05T03:44:08.597Z,70.42
2022-08-05T03:44:49.766Z,70.42
2022-08-05T03:45:57.910Z,70.07
2022-08-05T03:46:49.727Z,67.85
2022-08-05T03:47:49.748Z,64.91
2022-08-05T03:48:49.711Z,63.48
2022-08-05T03:49:51.870Z,65.83
2022-08-05T03:50:49.666Z,66.77
2022-08-05T03:52:48.289Z,65.21
2022-08-05T03:56:05.686Z,64.81
2022-08-05T03:56:27.903Z,89.07
2022-08-05T03:56:36.372Z,79.66
2022-08-05T03:57:29.085Z,78.32
2022-08-05T03:58:28.915Z,80.97
2022-08-05T03:59:25.826Z,80.89
2022-08-05T04:00:25.798Z,82.90
2022-08-05T04:01:25.862Z,85.26
2022-08-05T04:02:38.681Z,86.14
2022-08-05T04:03:28.864Z,89.64
2022-08-05T04:04:26.493Z,92.92
2022-08-05T04:05:25.756Z,95.61
2022-08-05T04:06:25.732Z,98.36
2022-08-05T04:07:25.887Z,100.12
2022-08-05T04:08:34.712Z,102.57
2022-08-05T04:09:26.114Z,105.48
2022-08-05T04:10:27.960Z,109.62
2022-08-05T04:11:25.667Z,115.20
2022-08-05T04:12:25.667Z,121.20
2022-08-05T04:13:25.652Z,127.18
2022-08-05T04:14:30.116Z,129.34
2022-08-05T04:15:25.613Z,135.41
2022-08-05T04:16:32.299Z,140.05
2022-08-05T04:17:25.946Z,142.55
2022-08-05T04:18:25.719Z,144.27
2022-08-05T04:19:25.573Z,146.03
2022-08-05T04:20:25.552Z,153.25
2022-08-05T04:22:09.084Z,157.87
2022-08-05T04:22:25.518Z,163.26
2022-08-05T04:24:01.091Z,169.88
2022-08-05T04:24:25.492Z,174.12
2022-08-05T04:25:56.948Z,174.84
2022-08-05T04:26:25.491Z,173.04
2022-08-05T04:27:33.122Z,172.15
2022-08-05T04:28:28.502Z,173.22
2022-08-05T04:29:27.180Z,174.30
2022-08-05T04:30:26.550Z,170.22
2022-08-05T04:31:27.715Z,171.27
2022-08-05T04:32:31.039Z,172.86
2022-08-05T04:33:54.875Z,173.93
2022-08-05T04:34:32.561Z,171.09
2022-08-05T04:35:25.349Z,171.62
2022-08-05T04:36:45.500Z,175.58
2022-08-05T04:38:02.932Z,177.44
2022-08-05T04:38:39.714Z,175.21
2022-08-05T04:39:25.364Z,176.69
2022-08-05T04:40:25.278Z,183.06
2022-08-05T04:41:34.159Z,185.38
2022-08-05T04:42:25.618Z,191.97
2022-08-05T04:43:26.046Z,191.86
2022-08-05T04:44:29.846Z,191.19
2022-08-05T04:45:30.989Z,191.52
2022-08-05T04:46:27.923Z,192.64
2022-08-05T04:47:25.528Z,192.64
2022-08-05T04:48:27.854Z,196.79
2022-08-05T04:49:38.689Z,193.44
2022-08-05T04:50:37.233Z,191.19
2022-08-05T04:51:25.138Z,187.28
2022-08-05T04:52:27.601Z,181.28
2022-08-05T04:53:25.129Z,183.66
2022-08-05T04:54:25.094Z,181.67
2022-08-05T04:56:00.106Z,181.47
2022-08-05T04:56:34.451Z,181.28
2022-08-05T04:57:28.365Z,183.26
2022-08-05T04:58:25.062Z,187.28
2022-08-05T04:59:38.546Z,195.04
2022-08-05T05:00:25.022Z,201.36
2022-08-05T05:02:06.139Z,208.76
2022-08-05T05:02:37.540Z,209.56
2022-08-05T05:03:24.991Z,208.76
2022-08-05T05:04:24.969Z,212.54
2022-08-05T05:05:28.868Z,212.40
2022-08-05T05:06:39.017Z,204.87
2022-08-05T05:07:29.769Z,202.60
2022-08-05T05:08:26.594Z,203.22
2022-08-05T05:09:24.934Z,204.23
2022-08-05T05:10:24.899Z,211.44
2022-08-05T05:11:24.868Z,222.59
2022-08-05T05:12:24.854Z,219.91
2022-08-05T05:13:24.840Z,216.59
2022-08-05T05:14:27.909Z,218.89
2022-08-05T05:15:57.291Z,217.59
2022-08-05T05:16:24.834Z,216.59
2022-08-05T05:17:55.949Z,217.59
2022-08-05T05:18:31.610Z,213.64
2022-08-05T05:19:26.589Z,219.33
2022-08-05T05:20:28.519Z,217.30
2022-08-05T05:21:27.200Z,215.31
2022-08-05T05:22:26.575Z,220.50
2022-08-05T05:23:24.735Z,232.65
2022-08-05T05:24:56.200Z,244.57
2022-08-05T05:25:32.547Z,254.01
2022-08-05T05:26:28.571Z,254.60
2022-08-05T05:27:24.951Z,257.78
2022-08-05T05:28:24.855Z,263.98
2022-08-05T05:29:24.656Z,268.94
2022-08-05T05:30:29.063Z,271.38
2022-08-05T05:31:24.642Z,274.77
2022-08-05T05:32:24.618Z,282.07
2022-08-05T05:33:24.609Z,278.49
2022-08-05T05:34:27.037Z,290.79
2022-08-05T05:35:24.557Z,297.08
2022-08-05T05:36:24.537Z,308.49
2022-08-05T05:37:37.327Z,312.00
2022-08-05T05:38:27.533Z,311.11
2022-08-05T05:39:24.584Z,309.65
2022-08-05T05:40:26.040Z,305.34
2022-08-05T05:41:24.501Z,293.90
2022-08-05T05:42:24.486Z,289.76
2022-08-05T05:43:56.382Z,290.02
2022-08-05T05:44:36.611Z,283.53
2022-08-05T05:45:24.673Z,269.16
2022-08-05T05:46:24.429Z,263.14
2022-08-05T05:47:30.199Z,263.35
2022-08-05T05:48:27.762Z,266.98
2022-08-05T05:49:24.393Z,269.16
2022-08-05T05:50:24.356Z,272.73
2022-08-05T05:51:24.349Z,275.92
2022-08-05T05:52:28.300Z,279.44
2022-08-05T05:53:24.338Z,284.02
2022-08-05T05:54:49.687Z,282.55
2022-08-05T05:55:24.326Z,288.75
2022-08-05T05:56:26.114Z,289.00
2022-08-05T05:57:24.444Z,285.49
2022-08-05T05:58:31.762Z,284.26
2022-08-05T05:59:24.252Z,291.56
2022-08-05T06:00:27.544Z,294.16
2022-08-05T06:01:24.229Z,302.82
2022-08-05T06:02:32.436Z,297.89
2022-08-05T06:03:40.039Z,300.88
2022-08-05T06:04:24.247Z,305.06
2022-08-05T06:05:24.201Z,311.41
2022-08-05T06:06:24.153Z,315.58
2022-08-05T06:07:24.414Z,308.78
2022-08-05T06:08:32.600Z,303.10
2022-08-05T06:09:27.475Z,301.71
2022-08-05T06:10:24.128Z,303.93
2022-08-05T06:11:24.157Z,306.48
2022-08-05T06:12:24.094Z,309.07
2022-08-05T06:13:24.069Z,311.70
2022-08-05T06:14:24.048Z,315.28
2022-08-05T06:15:24.506Z,324.92
2022-08-05T06:16:37.183Z,333.14
2022-08-05T06:17:24.627Z,343.57
2022-08-05T06:18:31.051Z,354.29
2022-08-05T06:19:34.009Z,356.20
2022-08-05T06:20:24.035Z,370.22
2022-08-05T06:21:24.030Z,386.67
2022-08-05T06:22:23.972Z,394.65
2022-08-05T06:23:23.939Z,400.56
2022-08-05T06:24:25.740Z,403.94
2022-08-05T06:25:59.302Z,414.19
2022-08-05T06:26:25.094Z,418.07
2022-08-05T06:28:11.815Z,423.36
2022-08-05T06:28:28.501Z,440.64
2022-08-05T06:29:48.864Z,444.74
2022-08-05T06:30:23.844Z,439.48
2022-08-05T06:31:30.480Z,455.64
2022-08-05T06:32:25.889Z,467.08
2022-08-05T06:34:00.484Z,474.03
2022-08-05T06:34:23.820Z,482.23
2022-08-05T06:36:03.485Z,497.64
2022-08-05T06:36:26.016Z,502.50
2022-08-05T06:37:55.817Z,515.66
2022-08-05T06:38:36.772Z,518.06
2022-08-05T06:39:24.685Z,514.87
2022-08-05T06:40:28.067Z,514.08
2022-08-05T06:41:23.727Z,520.47
2022-08-05T06:42:23.686Z,517.66
2022-08-05T06:43:57.743Z,518.46
2022-08-05T06:44:23.689Z,524.97
2022-08-05T06:46:02.915Z,518.06
2022-08-05T06:46:23.634Z,523.32
2022-08-05T06:48:11.634Z,524.14
2022-08-05T06:48:58.570Z,529.11
2022-08-05T06:50:01.864Z,548.18
2022-08-05T06:50:23.751Z,559.17
2022-08-05T06:51:29.296Z,552.71
2022-08-05T06:52:37.051Z,565.31
2022-08-05T06:53:28.565Z,564.84
2022-08-05T06:54:25.800Z,568.67
2022-08-05T06:55:23.507Z,565.79
2022-08-05T06:56:26.313Z,574.53
2022-08-05T06:57:57.427Z,587.65
2022-08-05T06:58:29.682Z,602.46
2022-08-05T06:59:23.497Z,599.76
2022-08-05T07:00:24.709Z,603.00
2022-08-05T07:01:23.546Z,611.26
2022-08-05T07:02:23.461Z,620.32
2022-08-05T07:03:32.310Z,627.89
2022-08-05T07:04:23.439Z,640.51
2022-08-05T07:05:37.198Z,641.12
2022-08-05T07:06:23.404Z,646.07
2022-08-05T07:07:35.496Z,657.49
2022-08-05T07:08:23.393Z,651.73
2022-08-05T07:09:24.899Z,673.37
2022-08-05T07:10:23.369Z,673.37
2022-08-05T07:11:25.510Z,684.39
2022-08-05T07:12:23.309Z,685.09
2022-08-05T07:13:37.228Z,679.52
2022-08-05T07:14:29.538Z,670.00
2022-08-05T07:15:34.324Z,667.33
2022-08-05T07:17:56.597Z,670.00
2022-08-05T07:18:08.445Z,671.34
2022-08-05T07:18:28.936Z,664.68
2022-08-05T07:20:10.508Z,654.92
2022-08-05T07:20:37.052Z,646.07
2022-08-05T07:21:25.897Z,632.04
2022-08-05T07:22:28.373Z,633.84
2022-08-05T07:23:26.227Z,645.45
2022-08-05T07:24:23.142Z,670.00
2022-08-05T07:25:55.217Z,699.41
2022-08-05T07:26:25.652Z,710.54
2022-08-05T07:27:23.289Z,729.12
2022-08-05T07:28:23.096Z,742.05
2022-08-05T07:30:22.305Z,743.70
2022-08-05T07:30:38.377Z,771.89
2022-08-05T07:31:40.636Z,780.89
2022-08-05T07:32:26.127Z,796.20
2022-08-05T07:33:36.834Z,802.40
2022-08-05T07:34:28.450Z,791.03
2022-08-05T07:36:01.625Z,789.16
2022-08-05T07:36:24.052Z,775.01
2022-08-05T07:37:23.316Z,775.46
2022-08-05T07:38:32.284Z,780.89
2022-08-05T07:39:24.807Z,768.35
2022-08-05T07:40:26.739Z,771.45
2022-08-05T07:42:08.364Z,773.67
2022-08-05T07:42:33.384Z,784.08
2022-08-05T07:43:22.929Z,767.47
2022-08-05T07:44:22.941Z,786.85
2022-08-05T07:45:56.608Z,773.22
2022-08-05T07:46:25.351Z,792.43
2022-08-05T07:47:23.091Z,800.96
2022-08-05T07:49:01.013Z,793.84
2022-08-05T07:49:22.859Z,789.16
2022-08-05T07:50:28.934Z,776.36
2022-08-05T07:51:23.629Z,776.36
2022-08-05T07:52:23.900Z,770.56
2022-08-05T07:53:22.778Z,767.47
2022-08-05T07:54:23.232Z,775.46
2022-08-05T07:56:04.905Z,775.01
2022-08-05T07:57:00.887Z,756.21
2022-08-05T07:57:56.339Z,767.03
2022-08-05T07:58:58.996Z,768.79
2022-08-05T07:59:23.373Z,761.36
2022-08-05T08:00:22.702Z,758.35
2022-08-05T08:01:22.732Z,755.35
2022-08-05T08:02:22.694Z,757.06
2022-08-05T08:03:22.672Z,769.23
2022-08-05T08:04:34.347Z,790.56
2022-08-05T08:05:22.659Z,810.65
2022-08-05T08:06:22.655Z,824.11
2022-08-05T08:07:23.007Z,834.89
2022-08-05T08:08:22.597Z,832.30
2022-08-05T08:09:22.928Z,821.08
2022-08-05T08:10:22.561Z,832.30
2022-08-05T08:11:27.754Z,836.45
2022-08-05T08:12:35.210Z,831.27
2022-08-05T08:13:28.825Z,833.85
2022-08-05T08:14:22.525Z,814.59
2022-08-05T08:16:35.948Z,814.59
2022-08-05T08:16:55.904Z,810.16
2022-08-05T08:17:22.918Z,808.20
2022-08-05T08:18:22.465Z,815.09
2022-08-05T08:20:22.066Z,802.88
2022-08-05T08:21:02.343Z,786.39
2022-08-05T08:21:22.478Z,787.31
2022-08-05T08:22:22.454Z,800.96
2022-08-05T08:24:03.591Z,802.88
2022-08-05T08:24:22.414Z,819.57
2022-08-05T08:25:26.519Z,843.83
2022-08-05T08:26:26.895Z,866.75
2022-08-05T08:27:22.661Z,882.16
2022-08-05T08:28:36.631Z,899.93
2022-08-05T08:30:04.280Z,925.41
2022-08-05T08:30:32.287Z,943.00
2022-08-05T08:31:22.308Z,932.50
2022-08-05T08:32:27.973Z,945.66
2022-08-05T08:33:22.254Z,948.34
2022-08-05T08:34:30.256Z,941.01
2022-08-05T08:35:22.246Z,948.34
2022-08-05T08:36:37.584Z,949.68
2022-08-05T08:37:27.842Z,938.38
2022-08-05T08:38:35.486Z,933.15
2022-08-05T08:39:22.228Z,917.81
2022-08-05T08:40:22.184Z,909.71
2022-08-05T08:41:22.163Z,915.30
2022-08-05T08:42:33.801Z,902.36
2022-08-05T08:44:57.933Z,892.14
2022-08-05T08:45:29.623Z,883.32
2022-08-05T08:45:35.832Z,938.38
2022-08-05T08:46:35.856Z,898.12
2022-08-05T08:48:06.775Z,884.49
2022-08-05T08:48:42.883Z,875.82
2022-08-05T08:50:13.106Z,870.13
2022-08-05T08:51:04.108Z,838.02
2022-08-05T08:52:06.144Z,820.07
2022-08-05T08:52:35.758Z,787.77
2022-08-05T08:53:35.709Z,758.35
2022-08-05T08:54:36.455Z,738.78
2022-08-05T08:56:04.899Z,700.14
2022-08-05T08:56:35.696Z,677.46
2022-08-05T08:57:42.355Z,653.01
2022-08-05T08:58:43.524Z,638.67
2022-08-05T08:59:35.673Z,610.70
2022-08-05T09:00:35.855Z,605.18
2022-08-05T09:01:35.639Z,589.20
2022-08-05T09:02:35.712Z,571.10
2022-08-05T09:03:40.361Z,558.71
2022-08-05T09:04:35.583Z,555.46
2022-08-05T09:05:38.847Z,543.73
2022-08-05T09:06:36.327Z,539.35
2022-08-05T09:07:39.878Z,517.66
2022-08-05T09:08:35.547Z,502.88
2022-08-05T09:09:35.886Z,492.52
2022-08-05T09:10:35.519Z,500.99
2022-08-05T09:11:51.414Z,496.90
2022-08-05T09:12:35.771Z,510.55
2022-08-05T09:14:09.232Z,522.10
2022-08-05T09:15:04.788Z,541.53
2022-08-05T09:15:36.954Z,552.25
2022-08-05T09:16:35.420Z,570.61
2022-08-05T09:17:42.498Z,575.03
2022-08-05T09:18:37.955Z,547.73
2022-08-05T09:19:36.638Z,540.22
2022-08-05T09:20:37.468Z,559.17
2022-08-05T09:22:21.939Z,568.67
2022-08-05T09:22:35.923Z,554.54
2022-08-05T09:23:43.308Z,564.36
2022-08-05T09:24:35.342Z,564.36
2022-08-05T09:26:02.468Z,571.59
2022-08-05T09:26:35.312Z,591.80
2022-08-05T09:28:04.384Z,596.55
2022-08-05T09:28:35.331Z,602.46
2022-08-05T09:29:35.271Z,612.94
2022-08-05T09:30:35.285Z,613.50
2022-08-05T09:32:39.967Z,615.76
2022-08-05T09:32:47.603Z,626.13
2022-08-05T09:33:35.452Z,620.32
2022-08-05T09:34:35.209Z,617.46
2022-08-05T09:35:35.194Z,624.38
2022-08-05T09:36:35.179Z,638.67
2022-08-05T09:38:17.510Z,661.39
2022-08-05T09:38:35.146Z,668.66
2022-08-05T09:39:44.694Z,668.66
2022-08-05T09:40:35.111Z,670.00
2022-08-05T09:41:39.107Z,685.09
2022-08-05T09:42:35.402Z,703.08
2022-08-05T09:43:40.834Z,737.15
2022-08-05T09:44:35.172Z,747.02
2022-08-05T09:46:06.696Z,788.70
2022-08-05T09:46:35.234Z,788.70
2022-08-05T09:47:55.276Z,782.25
2022-08-05T09:48:35.029Z,780.89
2022-08-05T09:49:40.473Z,790.56
2022-08-05T09:50:38.822Z,787.31
2022-08-05T09:51:36.619Z,792.43
2022-08-05T09:52:35.015Z,791.03
2022-08-05T09:53:54.313Z,782.71
2022-08-05T09:54:34.949Z,784.54
2022-08-05T09:55:58.238Z,771.45
2022-08-05T09:56:34.931Z,760.93
2022-08-05T09:57:35.337Z,742.88
2022-08-05T09:58:34.890Z,727.53
2022-08-05T09:59:37.164Z,712.81
2022-08-05T10:00:34.890Z,694.33
2022-08-05T10:01:34.839Z,660.74
2022-08-05T10:02:34.869Z,660.09
2022-08-05T10:03:56.935Z,633.24
2022-08-05T10:04:34.947Z,606.28
2022-08-05T10:05:34.786Z,615.76
2022-08-05T10:06:34.790Z,584.06
2022-08-05T10:08:34.512Z,581.52
2022-08-05T10:08:42.396Z,559.17
2022-08-05T10:09:45.023Z,530.37
2022-08-05T10:10:34.737Z,578.01
2022-08-05T10:11:35.256Z,575.03
2022-08-05T10:12:35.280Z,557.78
2022-08-05T10:13:45.697Z,539.78
2022-08-05T10:14:34.691Z,524.14
2022-08-05T10:15:34.675Z,524.97
2022-08-05T10:16:41.751Z,499.87
2022-08-05T10:17:37.782Z,433.79
2022-08-05T10:18:34.625Z,368.56
2022-08-05T10:20:04.305Z,324.29
2022-08-05T10:20:34.587Z,278.96
2022-08-05T10:21:35.369Z,235.82
2022-08-05T10:22:35.087Z,185.07
2022-08-05T10:23:59.799Z,160.29
2022-08-05T10:24:34.546Z,148.62
2022-08-05T10:25:34.521Z,139.12
2022-08-05T10:26:34.514Z,140.40
2022-08-05T10:28:13.434Z,149.69
2022-08-05T10:28:34.542Z,152.55
2022-08-05T10:30:41.212Z,156.10
2022-08-05T10:33:02.007Z,159.37
2022-08-05T10:33:09.355Z,215.46
2022-08-05T10:34:07.042Z,190.64
2022-08-05T10:35:05.231Z,178.57
2022-08-05T10:36:05.124Z,185.17
2022-08-05T10:37:05.098Z,194.81
2022-08-05T10:38:05.097Z,184.67
2022-08-05T10:39:11.737Z,180.88
2022-08-05T10:40:18.189Z,167.16
2022-08-05T10:41:05.142Z,173.22
2022-08-05T10:42:05.043Z,184.27
2022-08-05T10:43:05.022Z,184.67
2022-08-05T10:44:05.031Z,200.99
2022-08-05T10:45:21.291Z,215.74
2022-08-05T10:46:06.756Z,217.30
2022-08-05T10:47:04.970Z,216.59
2022-08-05T10:48:31.478Z,213.64
2022-08-05T10:49:08.050Z,211.04
2022-08-05T10:50:20.493Z,214.75
2022-08-05T10:51:04.931Z,219.62
2022-08-05T10:52:05.283Z,220.50
2022-08-05T10:53:04.909Z,235.82
2022-08-05T10:54:05.966Z,222.59
2022-08-05T10:55:04.896Z,191.41
2022-08-05T10:56:21.151Z,178.38
2022-08-05T10:57:04.844Z,185.80
2022-08-05T10:58:04.826Z,191.97
2022-08-05T10:59:12.282Z,194.58
2022-08-05T11:00:09.095Z,194.69
2022-08-05T11:01:04.777Z,184.67
2022-08-05T11:02:05.597Z,166.17
2022-08-05T11:03:23.831Z,152.55
2022-08-05T11:04:04.763Z,174.48
2022-08-05T11:05:04.738Z,174.84
2022-08-05T11:06:04.766Z,144.15
2022-08-05T11:07:04.712Z,120.42
2022-08-05T11:08:21.657Z,106.35
2022-08-05T11:09:04.699Z,94.47
2022-08-05T11:10:10.009Z,83.31
2022-08-05T11:11:14.549Z,77.89
2022-08-05T11:12:04.663Z,71.62
2022-08-05T11:13:04.618Z,64.51
2022-08-05T11:14:04.622Z,59.77
2022-08-05T11:15:19.857Z,62.25
2022-08-05T11:16:04.609Z,67.53
2022-08-05T11:17:14.232Z,71.93
2022-08-05T11:18:05.917Z,77.96
2022-08-05T11:20:11.015Z,88.60
2022-08-05T11:20:22.360Z,103.01
2022-08-05T11:21:06.504Z,120.07
2022-08-05T11:22:04.516Z,134.21
2022-08-05T11:23:09.007Z,142.92
2022-08-05T11:24:29.985Z,143.41
2022-08-05T11:26:03.589Z,134.86
2022-08-05T11:26:10.953Z,139.00
2022-08-05T11:27:04.450Z,158.62
2022-08-05T11:28:04.421Z,171.27
2022-08-05T11:29:12.053Z,186.11
2022-08-05T11:30:04.398Z,211.31
2022-08-05T11:31:06.455Z,238.55
2022-08-05T11:32:04.432Z,288.75
2022-08-05T11:33:04.380Z,335.18
2022-08-05T11:34:04.347Z,382.69
2022-08-05T11:35:04.380Z,402.48
2022-08-05T11:36:08.728Z,461.29
2022-08-05T11:37:55.121Z,500.99
2022-08-05T11:38:45.536Z,536.75
2022-08-05T11:39:04.391Z,574.53
2022-08-05T11:40:04.577Z,608.48
2022-08-05T11:41:35.555Z,612.38
2022-08-05T11:42:05.682Z,596.55
2022-08-05T11:43:04.278Z,591.28
2022-08-05T11:44:06.462Z,598.15
2022-08-05T11:45:05.320Z,595.49
2022-08-05T11:46:27.546Z,561.05
2022-08-05T11:47:10.440Z,553.62
2022-08-05T11:48:04.206Z,544.17
2022-08-05T11:49:04.177Z,555.92
2022-08-05T11:50:04.172Z,560.58
2022-08-05T11:51:04.182Z,567.71
2022-08-05T11:52:11.197Z,603.00
2022-08-05T11:53:04.143Z,637.46
2022-08-05T11:54:04.117Z,665.34
2022-08-05T11:55:07.564Z,692.89
2022-08-05T11:56:04.123Z,692.89
2022-08-05T11:57:07.703Z,680.21
2022-08-05T11:58:10.417Z,636.24
2022-08-05T11:59:04.076Z,646.70
2022-08-05T12:00:04.050Z,676.09
2022-08-05T12:01:04.604Z,695.05
2022-08-05T12:02:04.007Z,701.60
2022-08-05T12:03:04.079Z,716.63
2022-08-05T12:04:04.062Z,729.91
2022-08-05T12:05:07.662Z,762.66
2022-08-05T12:06:06.017Z,768.79
2022-08-05T12:07:03.949Z,771.89
2022-08-05T12:08:11.026Z,845.42
2022-08-05T12:09:03.969Z,899.93
2022-08-05T12:10:09.507Z,955.10
2022-08-05T12:11:05.799Z,965.42
2022-08-05T12:12:03.906Z,1000.75
2022-08-05T12:13:03.873Z,1006.76
2022-08-05T12:14:04.058Z,1008.28
2022-08-05T12:15:03.924Z,1090.32
2022-08-05T12:16:03.881Z,1121.34
2022-08-05T12:17:03.882Z,1111.11
2022-08-05T12:18:10.491Z,1102.88
2022-08-05T12:19:03.847Z,1108.35
2022-08-05T12:20:16.846Z,1096.56
2022-08-05T12:21:03.832Z,1113.88
2022-08-05T12:22:03.805Z,1157.17
2022-08-05T12:23:03.810Z,1221.51
2022-08-05T12:24:04.781Z,1273.76
2022-08-05T12:25:03.785Z,1340.00
2022-08-05T12:26:03.734Z,1330.69
2022-08-05T12:27:09.693Z,1278.63
2022-08-05T12:28:03.714Z,1322.80
2022-08-05T12:29:03.733Z,1338.66
2022-08-05T12:30:03.719Z,1414.99
2022-08-05T12:31:03.655Z,1416.49
2022-08-05T12:32:04.528Z,1382.87
2022-08-05T12:33:07.330Z,1403.14